Airport View

Enter AWOS ICAO identifier for current METAR.

ex. KFNL

KEAT 261055Z AUTO 26009KT 10SM CLR 13/07 A2986 RMK AO2 SLP106 T01280067

26 Jun 2019 11:56

Frequency: 119.925

Phone: 509-886-4226

Other Area AWOS: KELN - KEPH - KMWH - KSMP

TAF KEAT 260548Z 2606/2706 26006KT P6SM SCT100 FM261100 31007KT P6SM VCSH SCT070 BKN100 FM262100 29005KT P6SM VCTS SCT060CB OVC100 TEMPO 2621/2701 P6SM -TSRA SCT060CB OVC090